createdAt,value
2017-10-06T00:00:08.405Z,24.27
2017-10-06T00:02:35.920Z,23.83
2017-10-06T00:05:03.445Z,23.60
2017-10-06T00:07:30.997Z,23.77
2017-10-06T00:09:58.522Z,21.83
2017-10-06T00:12:26.274Z,21.43
2017-10-06T00:14:53.823Z,24.57
2017-10-06T00:17:21.719Z,23.13
2017-10-06T00:19:49.562Z,24.70
2017-10-06T00:22:17.126Z,24.57
2017-10-06T00:24:44.657Z,25.87
2017-10-06T00:27:12.238Z,23.13
2017-10-06T00:29:39.786Z,23.43
2017-10-06T00:32:07.442Z,23.27
2017-10-06T00:34:34.972Z,22.87
2017-10-06T00:37:02.527Z,23.33
2017-10-06T00:39:30.178Z,20.83
2017-10-06T00:41:57.769Z,23.53
2017-10-06T00:44:25.360Z,22.50
2017-10-06T00:46:53.143Z,23.33
2017-10-06T00:49:20.684Z,21.07
2017-10-06T00:51:48.214Z,21.17
2017-10-06T00:54:15.805Z,22.77
2017-10-06T00:56:43.673Z,20.50
2017-10-06T00:59:11.276Z,21.37
2017-10-06T01:01:38.930Z,21.73
2017-10-06T01:04:06.535Z,22.50
2017-10-06T01:06:34.354Z,21.30
2017-10-06T01:09:01.921Z,21.10
2017-10-06T01:11:29.497Z,21.87
2017-10-06T01:13:57.032Z,23.80
2017-10-06T01:16:24.630Z,20.90
2017-10-06T01:18:53.107Z,21.30
2017-10-06T01:21:20.647Z,20.10
2017-10-06T01:23:48.194Z,20.43
2017-10-06T01:26:16.092Z,20.13
2017-10-06T01:28:43.932Z,20.23
2017-10-06T01:31:11.519Z,21.83
2017-10-06T01:33:39.088Z,21.50
2017-10-06T01:36:07.428Z,23.47
2017-10-06T01:38:35.019Z,20.83
2017-10-06T01:41:02.581Z,22.63
2017-10-06T01:43:30.116Z,23.57
2017-10-06T01:45:57.896Z,23.53
2017-10-06T01:48:25.403Z,22.43
2017-10-06T01:50:53.043Z,19.77
2017-10-06T01:53:20.658Z,20.50
2017-10-06T01:55:48.184Z,18.20
2017-10-06T01:58:15.703Z,18.57
2017-10-06T02:00:43.293Z,17.00
2017-10-06T02:03:10.821Z,18.37
2017-10-06T02:05:38.360Z,20.47
2017-10-06T02:08:05.934Z,19.60
2017-10-06T02:10:33.486Z,20.47
2017-10-06T02:13:01.006Z,20.10
2017-10-06T02:15:28.561Z,17.33
2017-10-06T02:17:56.113Z,19.10
2017-10-06T02:20:23.763Z,17.67
2017-10-06T02:22:51.349Z,20.33
2017-10-06T02:25:18.890Z,21.60
2017-10-06T02:27:46.463Z,21.87
2017-10-06T02:30:14.040Z,24.97
2017-10-06T02:32:41.556Z,22.13
2017-10-06T02:35:09.128Z,22.53
2017-10-06T02:37:36.716Z,22.47
2017-10-06T02:40:04.263Z,21.20
2017-10-06T02:42:31.816Z,23.47
2017-10-06T02:44:59.386Z,22.37
2017-10-06T02:47:27.226Z,24.90
2017-10-06T02:49:54.767Z,23.40
2017-10-06T02:52:22.552Z,21.13
2017-10-06T02:54:50.169Z,20.80
2017-10-06T02:57:17.695Z,20.27
2017-10-06T02:59:45.253Z,20.90
2017-10-06T03:02:12.824Z,20.00
2017-10-06T03:04:40.347Z,18.47
2017-10-06T03:07:08.126Z,16.00
2017-10-06T03:09:35.671Z,15.17
2017-10-06T03:12:03.215Z,16.47
2017-10-06T03:14:30.742Z,15.83
2017-10-06T03:16:58.346Z,16.87
2017-10-06T03:19:25.883Z,16.03
2017-10-06T03:21:53.423Z,18.27
2017-10-06T03:24:21.046Z,16.57
2017-10-06T03:26:48.585Z,17.60
2017-10-06T03:29:16.189Z,16.10
2017-10-06T03:31:43.927Z,16.70
2017-10-06T03:34:11.495Z,17.97
2017-10-06T03:36:39.295Z,19.40
2017-10-06T03:39:06.876Z,18.27
2017-10-06T03:41:34.444Z,17.40
2017-10-06T03:44:01.993Z,18.10
2017-10-06T03:46:29.570Z,19.17
2017-10-06T03:48:57.087Z,19.40
2017-10-06T03:51:24.630Z,18.50
2017-10-06T03:53:52.580Z,19.53
2017-10-06T03:56:20.123Z,20.17
2017-10-06T03:58:47.682Z,20.20
2017-10-06T04:01:15.255Z,18.97
2017-10-06T04:03:42.775Z,18.93
2017-10-06T04:06:10.347Z,19.43
2017-10-06T04:08:37.927Z,20.23
2017-10-06T04:11:05.489Z,20.23
2017-10-06T04:13:33.658Z,16.73
2017-10-06T04:16:01.222Z,17.50
2017-10-06T04:18:28.750Z,15.60
2017-10-06T04:20:56.379Z,15.50
2017-10-06T04:23:23.975Z,13.40
2017-10-06T04:25:51.537Z,16.40
2017-10-06T04:28:19.114Z,17.67
2017-10-06T04:30:46.712Z,16.33
2017-10-06T04:33:14.248Z,19.67
2017-10-06T04:35:41.782Z,18.70
2017-10-06T04:38:09.406Z,20.13
2017-10-06T04:40:37.281Z,23.47
2017-10-06T04:43:04.908Z,22.33
2017-10-06T04:45:32.510Z,27.07
2017-10-06T04:48:00.066Z,24.93
2017-10-06T04:50:27.695Z,22.90
2017-10-06T04:52:55.305Z,25.13
2017-10-06T04:55:23.119Z,23.00
2017-10-06T04:57:50.773Z,24.37
2017-10-06T05:00:18.405Z,20.87
2017-10-06T05:02:45.955Z,21.43
2017-10-06T05:05:13.552Z,18.80
2017-10-06T05:07:41.109Z,21.03
2017-10-06T05:10:08.875Z,18.63
2017-10-06T05:12:36.479Z,18.47
2017-10-06T05:15:04.101Z,20.27
2017-10-06T05:17:31.684Z,19.33
2017-10-06T05:19:59.315Z,21.97
2017-10-06T05:22:26.890Z,25.27
2017-10-06T05:24:54.475Z,20.83
2017-10-06T05:27:22.083Z,23.50
2017-10-06T05:29:49.703Z,23.70
2017-10-06T05:32:17.377Z,23.43
2017-10-06T05:34:44.929Z,23.57
2017-10-06T05:37:12.526Z,25.00
2017-10-06T05:39:40.142Z,23.03
2017-10-06T05:42:07.694Z,22.50
2017-10-06T05:44:35.246Z,26.43
2017-10-06T05:47:02.789Z,27.57
2017-10-06T05:49:30.334Z,26.17
2017-10-06T05:51:57.910Z,26.73
2017-10-06T05:54:25.522Z,24.23
2017-10-06T05:56:53.049Z,23.30
2017-10-06T05:59:20.587Z,19.97
2017-10-06T06:01:48.217Z,21.37
2017-10-06T06:04:15.792Z,20.37
2017-10-06T06:06:43.338Z,21.60
2017-10-06T06:09:10.947Z,18.20
2017-10-06T06:11:38.539Z,17.87
2017-10-06T06:14:06.089Z,15.77
2017-10-06T06:16:33.710Z,14.73
2017-10-06T06:19:01.250Z,15.20
2017-10-06T06:21:29.645Z,14.23
2017-10-06T06:23:57.306Z,14.90
2017-10-06T06:26:25.159Z,14.73
2017-10-06T06:28:52.814Z,20.10
2017-10-06T06:31:20.418Z,19.87
2017-10-06T06:33:48.183Z,19.27
2017-10-06T06:36:15.761Z,21.10
2017-10-06T06:38:43.448Z,18.80
2017-10-06T06:41:11.011Z,17.47
2017-10-06T06:43:38.562Z,16.33
2017-10-06T06:46:06.182Z,14.93
2017-10-06T06:48:33.741Z,16.57
2017-10-06T06:51:01.307Z,13.07
2017-10-06T06:53:28.978Z,12.33
2017-10-06T06:55:56.550Z,12.67
2017-10-06T06:58:24.204Z,12.00
2017-10-06T07:00:51.884Z,11.90
2017-10-06T07:03:19.447Z,12.20
2017-10-06T07:05:47.192Z,13.57
2017-10-06T07:08:14.795Z,13.63
2017-10-06T07:10:42.574Z,14.93
2017-10-06T07:13:10.203Z,15.13
2017-10-06T07:15:37.835Z,15.27
2017-10-06T07:18:05.373Z,13.70
2017-10-06T07:20:32.944Z,12.93
2017-10-06T07:23:00.534Z,13.97
2017-10-06T07:25:28.282Z,11.90
2017-10-06T07:27:55.906Z,11.57
2017-10-06T07:30:23.518Z,13.63
2017-10-06T07:32:52.366Z,12.57
2017-10-06T07:35:19.968Z,10.97
2017-10-06T07:37:48.349Z,8.50
2017-10-06T07:40:15.925Z,8.30
2017-10-06T07:42:43.479Z,8.33
2017-10-06T07:45:11.098Z,9.13
2017-10-06T07:47:38.635Z,8.90
2017-10-06T07:50:06.179Z,9.83
2017-10-06T07:52:34.206Z,9.00
2017-10-06T07:55:01.848Z,9.47
2017-10-06T07:57:29.592Z,8.80
2017-10-06T07:59:57.188Z,7.70
2017-10-06T08:02:24.806Z,9.60
2017-10-06T08:04:52.391Z,9.37
2017-10-06T08:07:19.983Z,9.30
2017-10-06T08:09:47.588Z,9.10
2017-10-06T08:12:15.358Z,9.30
2017-10-06T08:14:42.961Z,8.57
2017-10-06T08:17:10.570Z,8.90
2017-10-06T08:19:38.969Z,9.17
2017-10-06T08:22:06.557Z,9.00
2017-10-06T08:24:34.168Z,9.47
2017-10-06T08:27:01.949Z,9.50
2017-10-06T08:29:29.740Z,9.73
2017-10-06T08:31:57.359Z,9.43
2017-10-06T08:34:24.944Z,9.73
2017-10-06T08:36:52.555Z,9.43
2017-10-06T08:39:20.163Z,9.80
2017-10-06T08:41:47.980Z,9.60
2017-10-06T08:44:15.573Z,9.70
2017-10-06T08:46:43.268Z,10.10
2017-10-06T08:49:10.850Z,10.40
2017-10-06T08:51:39.982Z,11.43
2017-10-06T08:54:07.590Z,10.67
2017-10-06T08:56:35.205Z,11.33
2017-10-06T08:59:02.809Z,12.47
2017-10-06T09:01:30.407Z,11.77
2017-10-06T09:03:57.979Z,12.63
2017-10-06T09:06:25.568Z,10.40
2017-10-06T09:08:53.205Z,9.60
2017-10-06T09:11:20.840Z,9.00
2017-10-06T09:13:49.160Z,9.90
2017-10-06T09:16:16.754Z,9.00
2017-10-06T09:18:44.343Z,9.80
2017-10-06T09:21:11.878Z,7.83
2017-10-06T09:23:39.471Z,7.70
2017-10-06T09:26:07.657Z,7.37
2017-10-06T09:28:35.370Z,6.23
2017-10-06T09:31:03.004Z,6.33
2017-10-06T09:33:30.573Z,6.97
2017-10-06T09:35:58.179Z,6.80
2017-10-06T09:38:25.809Z,7.10
2017-10-06T09:40:53.394Z,6.80
2017-10-06T09:43:20.929Z,6.33
2017-10-06T09:45:48.582Z,6.50
2017-10-06T09:48:16.195Z,9.57
2017-10-06T09:50:43.781Z,7.50
2017-10-06T09:53:11.369Z,7.40
2017-10-06T09:55:39.719Z,7.17
2017-10-06T09:58:07.277Z,6.30
2017-10-06T10:00:34.898Z,7.53
2017-10-06T10:03:02.509Z,7.00
2017-10-06T10:05:30.124Z,6.30
2017-10-06T10:07:57.730Z,6.07
2017-10-06T10:10:25.283Z,6.17
2017-10-06T10:12:52.872Z,6.70
2017-10-06T10:15:20.503Z,6.67
2017-10-06T10:17:48.135Z,5.63
2017-10-06T10:20:15.717Z,6.20
2017-10-06T10:22:43.522Z,5.80
2017-10-06T10:25:11.078Z,5.87
2017-10-06T10:27:38.655Z,6.90
2017-10-06T10:30:06.670Z,6.23
2017-10-06T10:32:34.251Z,7.00
2017-10-06T10:35:01.859Z,7.60
2017-10-06T10:37:29.448Z,6.20
2017-10-06T10:39:57.256Z,5.40
2017-10-06T10:42:24.839Z,5.67
2017-10-06T10:44:52.463Z,5.77
2017-10-06T10:47:20.131Z,6.53
2017-10-06T10:49:47.718Z,6.40
2017-10-06T10:52:15.347Z,5.73
2017-10-06T10:54:42.906Z,6.00
2017-10-06T10:57:10.478Z,6.80
2017-10-06T10:59:38.101Z,5.57
2017-10-06T11:02:05.699Z,6.40
2017-10-06T11:04:33.470Z,7.67
2017-10-06T11:07:01.297Z,5.70
2017-10-06T11:09:28.904Z,7.00
2017-10-06T11:11:56.471Z,5.60
2017-10-06T11:14:24.099Z,6.10
2017-10-06T11:16:51.669Z,5.40
2017-10-06T11:19:19.275Z,6.03
2017-10-06T11:21:46.850Z,5.90
2017-10-06T11:24:14.460Z,5.80
2017-10-06T11:26:42.085Z,5.30
2017-10-06T11:29:09.668Z,5.50
2017-10-06T11:31:37.302Z,5.40
2017-10-06T11:34:04.950Z,6.13
2017-10-06T11:36:32.530Z,5.50
2017-10-06T11:39:00.118Z,5.33
2017-10-06T11:41:27.671Z,7.20
2017-10-06T11:43:55.300Z,5.50
2017-10-06T11:46:23.003Z,5.97
2017-10-06T11:48:50.578Z,5.23
2017-10-06T11:51:18.255Z,5.70
2017-10-06T11:53:45.897Z,6.30
2017-10-06T11:56:13.534Z,5.57
2017-10-06T11:58:41.319Z,5.67
2017-10-06T12:01:08.882Z,5.73
2017-10-06T12:03:36.547Z,6.20
2017-10-06T12:06:04.124Z,6.40
2017-10-06T12:08:31.761Z,5.30
2017-10-06T12:10:59.635Z,5.87
2017-10-06T12:13:27.184Z,6.37
2017-10-06T12:15:54.852Z,5.90
2017-10-06T12:18:23.282Z,6.67
2017-10-06T12:20:50.882Z,6.30
2017-10-06T12:23:18.498Z,7.00
2017-10-06T12:25:46.070Z,6.00
2017-10-06T12:28:13.612Z,6.00
2017-10-06T12:30:41.235Z,5.90
2017-10-06T12:33:08.851Z,5.57
2017-10-06T12:35:36.626Z,6.33
2017-10-06T12:38:04.250Z,6.07
2017-10-06T12:40:31.906Z,7.13
2017-10-06T12:42:59.470Z,6.30
2017-10-06T12:45:27.282Z,6.20
2017-10-06T12:47:54.829Z,7.07
2017-10-06T12:50:22.375Z,7.20
2017-10-06T12:52:49.966Z,7.77
2017-10-06T12:55:17.520Z,8.30
2017-10-06T12:57:45.139Z,8.90
2017-10-06T13:00:12.746Z,7.77
2017-10-06T13:02:40.369Z,8.40
2017-10-06T13:05:07.925Z,9.40
2017-10-06T13:07:35.537Z,8.53
2017-10-06T13:10:03.144Z,8.50
2017-10-06T13:12:30.706Z,8.67
2017-10-06T13:14:58.315Z,8.10
2017-10-06T13:17:25.838Z,9.17
2017-10-06T13:19:53.401Z,9.00
2017-10-06T13:22:20.998Z,8.50
2017-10-06T13:24:48.550Z,8.03
2017-10-06T13:27:16.167Z,8.83
2017-10-06T13:29:43.749Z,8.50
2017-10-06T13:32:11.359Z,9.60
2017-10-06T13:34:38.914Z,9.93
2017-10-06T13:37:06.426Z,10.00
2017-10-06T13:39:34.013Z,9.40
2017-10-06T13:42:01.576Z,9.73
2017-10-06T13:44:29.367Z,10.80
2017-10-06T13:46:56.953Z,10.57
2017-10-06T13:49:24.576Z,11.20
2017-10-06T13:51:52.438Z,11.97
2017-10-06T13:54:20.670Z,13.43
2017-10-06T13:56:48.218Z,14.63
2017-10-06T13:59:15.807Z,12.90
2017-10-06T14:01:43.533Z,13.80
2017-10-06T14:04:11.348Z,14.00
2017-10-06T14:06:40.046Z,13.67
2017-10-06T14:09:07.649Z,13.60
2017-10-06T14:11:35.402Z,14.13
2017-10-06T14:14:03.079Z,15.27
2017-10-06T14:16:30.668Z,14.47
2017-10-06T14:18:58.227Z,15.00
2017-10-06T14:21:25.764Z,15.13
2017-10-06T14:23:53.351Z,14.43
2017-10-06T14:26:21.573Z,15.27
2017-10-06T14:28:49.104Z,13.67
2017-10-06T14:31:16.682Z,15.00
2017-10-06T14:33:44.210Z,15.60
2017-10-06T14:36:12.235Z,14.57
2017-10-06T14:38:39.842Z,13.43
2017-10-06T14:41:07.371Z,12.97
2017-10-06T14:43:35.129Z,16.87
2017-10-06T14:46:02.704Z,14.33
2017-10-06T14:48:30.255Z,13.63
2017-10-06T14:50:58.509Z,14.00
2017-10-06T14:53:26.127Z,13.87
2017-10-06T14:55:53.878Z,14.13
2017-10-06T14:58:23.782Z,15.43
2017-10-06T15:00:51.740Z,14.63
2017-10-06T15:03:19.392Z,13.73
2017-10-06T15:05:47.019Z,14.00
2017-10-06T15:08:14.661Z,13.67
2017-10-06T15:10:43.135Z,12.90
2017-10-06T15:13:10.851Z,14.13
2017-10-06T15:15:38.465Z,12.93
2017-10-06T15:18:06.443Z,13.27
2017-10-06T15:20:34.042Z,12.03
2017-10-06T15:23:01.791Z,13.70
2017-10-06T15:25:29.365Z,13.70
2017-10-06T15:27:57.124Z,15.47
2017-10-06T15:30:25.712Z,15.20
2017-10-06T15:32:53.386Z,13.67
2017-10-06T15:35:23.739Z,36.77
2017-10-06T15:37:51.542Z,13.70
2017-10-06T15:40:19.207Z,58.73
2017-10-06T15:42:47.366Z,18.23
2017-10-06T15:45:14.927Z,14.13
2017-10-06T15:47:42.586Z,17.83
2017-10-06T15:50:10.145Z,10.40
2017-10-06T15:52:37.812Z,10.93
2017-10-06T15:55:05.436Z,13.50
2017-10-06T15:57:33.046Z,12.13
2017-10-06T16:00:00.679Z,10.20
2017-10-06T16:02:28.265Z,11.17
2017-10-06T16:04:55.857Z,10.90
2017-10-06T16:07:23.439Z,9.63
2017-10-06T16:09:51.110Z,11.17
2017-10-06T16:12:20.049Z,10.53
2017-10-06T16:14:47.656Z,10.00
2017-10-06T16:17:15.456Z,9.73
2017-10-06T16:19:43.067Z,9.87
2017-10-06T16:22:10.667Z,8.57
2017-10-06T16:24:38.233Z,8.97
2017-10-06T16:27:06.636Z,8.67
2017-10-06T16:29:34.471Z,10.27
2017-10-06T16:32:02.099Z,8.50
2017-10-06T16:34:29.843Z,8.30
2017-10-06T16:36:57.684Z,7.83
2017-10-06T16:39:25.495Z,7.90
2017-10-06T16:41:53.091Z,8.40
2017-10-06T16:44:20.659Z,7.90
2017-10-06T16:46:48.337Z,8.60
2017-10-06T16:49:15.930Z,7.90
2017-10-06T16:51:43.545Z,8.53
2017-10-06T16:54:11.215Z,8.40
2017-10-06T16:56:38.819Z,7.70
2017-10-06T16:59:09.060Z,8.27
2017-10-06T17:01:37.430Z,7.60
2017-10-06T17:04:06.163Z,8.10
2017-10-06T17:06:33.773Z,8.27
2017-10-06T17:09:02.275Z,7.60
2017-10-06T17:11:29.947Z,8.20
2017-10-06T17:13:57.562Z,7.97
2017-10-06T17:16:26.320Z,8.10
2017-10-06T17:18:55.370Z,8.50
2017-10-06T17:21:26.197Z,8.10
2017-10-06T17:23:55.731Z,7.47
2017-10-06T17:26:23.252Z,7.70
2017-10-06T17:28:51.621Z,7.70
2017-10-06T17:31:19.198Z,7.13
2017-10-06T17:33:46.762Z,7.00
2017-10-06T17:36:15.151Z,6.10
2017-10-06T17:38:42.893Z,6.90
2017-10-06T17:41:10.476Z,6.50
2017-10-06T17:43:38.898Z,6.00
2017-10-06T17:46:06.489Z,7.23
2017-10-06T17:48:34.586Z,5.90
2017-10-06T17:51:02.374Z,6.20
2017-10-06T17:53:30.046Z,6.17
2017-10-06T17:55:57.653Z,5.70
2017-10-06T17:58:25.462Z,5.90
2017-10-06T18:00:53.143Z,5.20
2017-10-06T18:03:20.755Z,5.33
2017-10-06T18:05:48.291Z,5.50
2017-10-06T18:08:16.654Z,5.00
2017-10-06T18:10:45.334Z,4.80
2017-10-06T18:13:17.211Z,5.10
2017-10-06T18:15:45.777Z,5.37
2017-10-06T18:18:13.400Z,5.53
2017-10-06T18:20:41.034Z,5.67
2017-10-06T18:23:08.733Z,5.20
2017-10-06T18:25:36.547Z,4.87
2017-10-06T18:28:04.106Z,4.33
2017-10-06T18:30:31.918Z,4.50
2017-10-06T18:32:59.758Z,4.27
2017-10-06T18:35:27.506Z,4.90
2017-10-06T18:37:55.058Z,4.33
2017-10-06T18:40:22.648Z,4.00
2017-10-06T18:42:50.809Z,4.40
2017-10-06T18:45:18.437Z,4.20
2017-10-06T18:47:46.070Z,4.30
2017-10-06T18:50:13.622Z,4.13
2017-10-06T18:52:41.187Z,4.03
2017-10-06T18:55:08.977Z,4.40
2017-10-06T18:57:37.418Z,4.07
2017-10-06T19:00:08.651Z,5.07
2017-10-06T19:02:36.427Z,5.20
2017-10-06T19:05:04.019Z,4.30
2017-10-06T19:07:31.588Z,4.60
2017-10-06T19:09:59.123Z,4.37
2017-10-06T19:12:26.626Z,3.70
2017-10-06T19:14:54.182Z,4.03
2017-10-06T19:17:22.127Z,4.70
2017-10-06T19:19:49.698Z,4.40
2017-10-06T19:22:17.284Z,4.27
2017-10-06T19:24:44.874Z,3.90
2017-10-06T19:27:12.489Z,3.90
2017-10-06T19:29:40.114Z,4.30
2017-10-06T19:32:07.791Z,4.60
2017-10-06T19:34:35.358Z,4.07
2017-10-06T19:37:09.361Z,3.83
2017-10-06T19:39:37.977Z,4.43
2017-10-06T19:42:05.807Z,3.40
2017-10-06T19:44:33.405Z,3.77
2017-10-06T19:47:00.997Z,3.70
2017-10-06T19:49:29.071Z,3.43
2017-10-06T19:51:57.573Z,4.23
2017-10-06T19:54:27.887Z,4.13
2017-10-06T19:57:00.578Z,3.83
2017-10-06T19:59:30.823Z,3.60
2017-10-06T20:01:58.587Z,3.80
2017-10-06T20:04:28.698Z,3.60
2017-10-06T20:07:01.071Z,3.80
2017-10-06T20:09:31.989Z,3.83
2017-10-06T20:12:11.696Z,4.07
2017-10-06T20:14:57.630Z,4.13
2017-10-06T20:17:31.246Z,3.80
2017-10-06T20:20:03.521Z,3.40
2017-10-06T20:22:36.137Z,3.77
2017-10-06T20:25:03.812Z,3.43
2017-10-06T20:27:31.903Z,3.47
2017-10-06T20:30:00.414Z,2.97
2017-10-06T20:32:28.007Z,3.37
2017-10-06T20:34:56.115Z,3.53
2017-10-06T20:37:23.975Z,3.63
2017-10-06T20:39:51.567Z,3.40
2017-10-06T20:42:19.714Z,3.00
2017-10-06T20:44:47.646Z,2.90
2017-10-06T20:47:15.325Z,3.20
2017-10-06T20:49:43.136Z,3.27
2017-10-06T20:52:10.742Z,2.97
2017-10-06T20:54:38.363Z,3.10
2017-10-06T20:57:05.908Z,3.23
2017-10-06T20:59:33.703Z,3.00
2017-10-06T21:02:01.537Z,4.07
2017-10-06T21:04:29.169Z,3.50
2017-10-06T21:06:56.775Z,3.00
2017-10-06T21:09:24.392Z,2.90
2017-10-06T21:11:51.978Z,3.13
2017-10-06T21:14:19.783Z,3.00
2017-10-06T21:16:47.399Z,2.90
2017-10-06T21:19:15.053Z,2.87
2017-10-06T21:21:42.811Z,2.97
2017-10-06T21:24:10.434Z,2.87
2017-10-06T21:26:38.184Z,3.30
2017-10-06T21:29:06.510Z,2.80
2017-10-06T21:31:34.139Z,2.97
2017-10-06T21:34:01.915Z,2.43
2017-10-06T21:36:29.692Z,2.40
2017-10-06T21:38:57.325Z,2.40
2017-10-06T21:41:25.218Z,2.67
2017-10-06T21:43:52.756Z,2.57
2017-10-06T21:46:20.343Z,2.67
2017-10-06T21:48:48.468Z,2.60
2017-10-06T21:51:15.994Z,3.10
2017-10-06T21:53:43.599Z,3.03
2017-10-06T21:56:11.351Z,2.30
2017-10-06T21:58:39.103Z,2.00
2017-10-06T22:01:06.719Z,2.30
2017-10-06T22:03:34.312Z,2.70
2017-10-06T22:06:01.942Z,2.30
2017-10-06T22:08:29.576Z,2.57
2017-10-06T22:10:57.216Z,2.47
2017-10-06T22:13:24.953Z,2.33
2017-10-06T22:15:52.548Z,2.70
2017-10-06T22:18:20.125Z,2.17
2017-10-06T22:20:47.661Z,2.43
2017-10-06T22:23:15.245Z,2.57
2017-10-06T22:25:42.990Z,2.30
2017-10-06T22:28:10.575Z,2.37
2017-10-06T22:30:38.203Z,2.63
2017-10-06T22:33:05.816Z,2.23
2017-10-06T22:35:35.696Z,2.33
2017-10-06T22:38:04.786Z,2.27
2017-10-06T22:40:32.427Z,2.33
2017-10-06T22:43:00.026Z,2.40
2017-10-06T22:45:27.668Z,2.23
2017-10-06T22:47:55.525Z,2.10
2017-10-06T22:50:23.131Z,2.30
2017-10-06T22:52:50.754Z,1.83
2017-10-06T22:55:18.419Z,2.03
2017-10-06T22:57:46.168Z,2.43
2017-10-06T23:00:13.890Z,2.40
2017-10-06T23:02:41.476Z,2.07
2017-10-06T23:05:09.053Z,2.33
2017-10-06T23:07:36.644Z,2.03
2017-10-06T23:10:04.280Z,2.17
2017-10-06T23:12:31.815Z,2.20
2017-10-06T23:14:59.382Z,2.10
2017-10-06T23:17:26.962Z,1.80
2017-10-06T23:19:54.722Z,2.00
2017-10-06T23:22:22.314Z,2.30
2017-10-06T23:24:49.858Z,1.90
2017-10-06T23:27:17.591Z,1.80
2017-10-06T23:29:45.191Z,2.00
2017-10-06T23:32:12.755Z,1.73
2017-10-06T23:34:41.247Z,1.93
2017-10-06T23:37:08.841Z,2.50
2017-10-06T23:39:37.355Z,2.03
2017-10-06T23:42:04.986Z,1.90
2017-10-06T23:44:32.568Z,2.30
2017-10-06T23:47:01.449Z,1.70
2017-10-06T23:49:28.979Z,1.53
2017-10-06T23:51:56.847Z,1.40
2017-10-06T23:54:24.505Z,1.50
2017-10-06T23:56:52.087Z,1.50
2017-10-06T23:59:19.641Z,1.40
